Time;durP1;ratioP1;P1;durP2;ratioP2;P2;SDS_P1;SDS_P2;PMS_P1;PMS_P2;Temp;Humidity;BMP_temperature;BMP_pressure;BME280_temperature;BME280_humidity;BME280_pressure;Samples;Min_cycle;Max_cycle;Signal;HPM_P1;HPM_P2
2022/11/18 00:01:31;;;;;;;0.90;0.90;;;8.30;99.90;;;;;;5022575;28;20030;-39
2022/11/18 00:03:57;;;;;;;3.55;1.27;;;8.30;99.90;;;;;;5024644;28;20577;-39
2022/11/18 00:06:26;;;;;;;5.63;2.47;;;8.40;99.90;;;;;;5021141;28;20152;-37
2022/11/18 00:08:53;;;;;;;5.60;2.50;;;8.40;99.90;;;;;;5020811;28;20033;-38
2022/11/18 00:14:17;;;;;;;3.45;3.00;;;8.40;99.90;;;;;;5023371;28;20466;-37
2022/11/18 00:16:47;;;;;;;1.73;1.63;;;8.40;99.90;;;;;;5022572;28;20117;-37
2022/11/18 00:19:13;;;;;;;2.03;1.50;;;8.40;99.90;;;;;;5027007;28;20052;-39
2022/11/18 00:21:38;;;;;;;1.58;1.38;;;8.40;99.90;;;;;;5023185;28;20471;-39
2022/11/18 00:24:04;;;;;;;1.35;1.10;;;8.30;99.90;;;;;;5021911;28;20101;-36
2022/11/18 00:26:30;;;;;;;0.80;0.80;;;8.40;99.90;;;;;;5019679;28;20029;-38
2022/11/18 00:28:55;;;;;;;1.77;1.67;;;8.40;99.90;;;;;;5025138;28;20460;-35
2022/11/18 00:31:21;;;;;;;5.40;5.00;;;8.40;99.90;;;;;;5022613;28;20442;-39
2022/11/18 00:33:46;;;;;;;2.28;2.08;;;8.40;99.90;;;;;;5025905;28;20057;-35
2022/11/18 00:36:12;;;;;;;2.20;2.00;;;8.40;99.90;;;;;;5021360;28;20116;-37
2022/11/18 00:38:39;;;;;;;2.15;1.50;;;8.40;99.90;;;;;;5024639;28;20025;-38
2022/11/18 00:41:13;;;;;;;1.80;1.70;;;8.50;99.90;;;;;;5022202;28;20025;-36
2022/11/18 00:43:39;;;;;;;4.18;1.83;;;8.40;99.90;;;;;;5020182;28;20040;-39
2022/11/18 00:46:07;;;;;;;7.15;2.05;;;8.40;99.90;;;;;;5023318;28;20044;-38
2022/11/18 00:48:33;;;;;;;6.22;2.70;;;8.50;99.90;;;;;;5022379;28;20029;-38
2022/11/18 00:51:07;;;;;;;8.10;3.25;;;8.50;99.90;;;;;;5024023;28;20042;-38
2022/11/18 00:53:33;;;;;;;11.68;4.78;;;8.50;99.90;;;;;;5004730;28;20481;-36
2022/11/18 00:55:58;;;;;;;14.90;5.15;;;8.50;99.90;;;;;;5025255;28;20029;-39
2022/11/18 00:58:24;;;;;;;14.10;5.25;;;8.50;99.90;;;;;;5023501;28;20026;-38
2022/11/18 01:00:51;;;;;;;16.63;6.13;;;8.50;99.90;;;;;;5021130;28;20108;-37
2022/11/18 01:03:18;;;;;;;13.52;5.75;;;8.50;99.90;;;;;;5011416;28;20906;-37
2022/11/18 01:05:43;;;;;;;17.30;7.82;;;8.50;99.90;;;;;;5021448;28;20095;-39
2022/11/18 01:08:10;;;;;;;6.68;3.00;;;8.50;99.90;;;;;;5023365;28;20324;-38
2022/11/18 01:10:38;;;;;;;5.32;3.22;;;8.40;99.90;;;;;;5024939;28;20076;-39
2022/11/18 01:13:19;;;;;;;4.78;3.35;;;8.40;99.90;;;;;;5020741;28;20037;-38
2022/11/18 01:15:56;;;;;;;3.38;2.13;;;8.40;99.90;;;;;;5026225;28;20037;-39
2022/11/18 01:18:29;;;;;;;1.63;1.50;;;8.40;99.90;;;;;;5025884;28;20513;-39
2022/11/18 01:20:59;;;;;;;1.17;1.08;;;8.40;99.90;;;;;;5025862;28;20371;-38
2022/11/18 01:23:25;;;;;;;1.10;1.00;;;8.40;99.90;;;;;;5024253;28;20569;-39
2022/11/18 01:25:51;;;;;;;1.23;1.10;;;8.30;99.90;;;;;;5021205;28;20029;-39
2022/11/18 01:28:18;;;;;;;1.33;1.05;;;8.40;99.90;;;;;;5024551;28;20099;-37
2022/11/18 01:30:44;;;;;;;0.90;0.90;;;8.30;99.90;;;;;;5022411;28;20409;-39
2022/11/18 01:33:10;;;;;;;0.82;0.70;;;8.30;99.90;;;;;;5028207;28;20029;-38
2022/11/18 01:35:41;;;;;;;0.60;0.60;;;8.20;99.90;;;;;;5023192;28;20047;-38
2022/11/18 01:38:12;;;;;;;0.70;0.70;;;8.20;99.90;;;;;;5023226;28;20029;-39
2022/11/18 01:40:39;;;;;;;1.05;0.70;;;8.20;99.90;;;;;;5029636;28;20434;-39
2022/11/18 01:43:16;;;;;;;1.40;0.75;;;8.20;99.90;;;;;;5025234;28;21421;-39
2022/11/18 01:45:45;;;;;;;2.17;0.73;;;8.20;99.90;;;;;;5027148;28;20025;-38
2022/11/18 01:48:27;;;;;;;0.68;0.68;;;8.20;99.90;;;;;;5027563;28;20033;-37
2022/11/18 01:51:18;;;;;;;1.65;0.80;;;8.10;99.90;;;;;;5027800;28;20038;-37
2022/11/18 01:54:01;;;;;;;0.90;0.90;;;8.00;99.90;;;;;;5026759;28;20065;-39
2022/11/18 01:56:43;;;;;;;0.90;0.90;;;8.00;99.90;;;;;;5008557;28;20160;-35
2022/11/18 01:59:20;;;;;;;1.20;0.90;;;8.00;99.90;;;;;;5027920;28;20021;-39
2022/11/18 02:01:46;;;;;;;1.40;1.00;;;8.00;99.90;;;;;;5024131;28;20034;-33
2022/11/18 02:04:13;;;;;;;0.75;0.73;;;7.90;99.90;;;;;;5026833;28;20091;-30
2022/11/18 02:06:41;;;;;;;0.85;0.85;;;7.90;99.90;;;;;;5024876;28;20640;-32
2022/11/18 02:09:07;;;;;;;0.90;0.90;;;7.90;99.90;;;;;;5027021;28;20042;-35
2022/11/18 02:11:52;;;;;;;1.73;0.80;;;7.90;99.90;;;;;;5027049;28;20546;-33
2022/11/18 02:14:21;;;;;;;0.82;0.82;;;7.90;99.90;;;;;;5023147;28;20375;-34
2022/11/18 02:16:47;;;;;;;;;;;7.80;99.90;;;;;;5027134;28;20034;-30
2022/11/18 02:19:37;;;;;;;0.77;0.77;;;7.80;99.90;;;;;;5027794;28;19920;-30
2022/11/18 02:22:21;;;;;;;2.35;0.70;;;7.80;99.90;;;;;;5025265;28;20048;-31
2022/11/18 02:25:02;;;;;;;0.85;0.85;;;7.80;99.90;;;;;;5027054;28;20037;-30
2022/11/18 02:27:49;;;;;;;2.50;0.90;;;7.80;99.90;;;;;;5024188;28;20457;-32
2022/11/18 02:30:16;;;;;;;0.63;0.63;;;7.80;99.90;;;;;;5024223;28;20421;-31
2022/11/18 02:33:23;;;;;;;1.85;1.00;;;7.80;99.90;;;;;;5024329;28;20052;-33
2022/11/18 02:36:00;;;;;;;0.75;0.73;;;7.80;99.90;;;;;;4941247;28;20074;-29
2022/11/18 02:38:44;;;;;;;2.05;0.77;;;7.90;99.90;;;;;;5013862;28;20080;-32
2022/11/18 02:41:17;;;;;;;0.80;0.80;;;7.90;99.90;;;;;;5024076;28;20057;-31
2022/11/18 02:43:55;;;;;;;0.80;0.80;;;7.90;99.90;;;;;;5020469;28;20028;-31
2022/11/18 02:46:31;;;;;;;0.70;0.70;;;7.90;99.90;;;;;;5022902;28;20544;-35
2022/11/18 02:48:59;;;;;;;0.80;0.80;;;7.90;99.90;;;;;;5023922;28;20033;-31
2022/11/18 02:51:27;;;;;;;0.70;0.70;;;7.90;99.90;;;;;;5025012;28;20033;-30
2022/11/18 02:53:56;;;;;;;0.80;0.80;;;7.90;99.90;;;;;;5025272;28;20056;-32
2022/11/18 02:56:23;;;;;;;;;;;7.90;99.90;;;;;;5010355;28;20025;-33
2022/11/18 02:58:49;;;;;;;1.40;0.90;;;7.90;99.90;;;;;;5022886;28;20492;-31
2022/11/18 03:01:30;;;;;;;0.80;0.80;;;7.90;99.90;;;;;;5025055;28;20056;-31
2022/11/18 03:03:56;;;;;;;1.05;0.75;;;8.00;99.90;;;;;;5026555;28;20034;-31
2022/11/18 03:06:44;;;;;;;0.90;0.90;;;8.00;99.90;;;;;;5025293;28;20034;-31
2022/11/18 03:09:35;;;;;;;0.70;0.70;;;8.00;99.90;;;;;;5022932;28;20399;-31
2022/11/18 03:12:41;;;;;;;0.70;0.60;;;8.00;99.90;;;;;;5023093;28;20037;-31
2022/11/18 03:15:32;;;;;;;0.75;0.75;;;8.00;99.90;;;;;;4962897;28;20046;-31
2022/11/18 03:18:22;;;;;;;0.60;0.60;;;8.00;99.90;;;;;;5013609;28;20038;-32
2022/11/18 03:20:52;;;;;;;0.45;0.45;;;8.00;99.90;;;;;;5023932;28;20427;-31
2022/11/18 03:23:27;;;;;;;1.38;0.90;;;8.00;99.90;;;;;;5026083;28;20052;-33
2022/11/18 03:26:30;;;;;;;0.70;0.70;;;7.90;99.90;;;;;;5027554;28;20233;-32
2022/11/18 03:29:09;;;;;;;0.68;0.68;;;8.00;99.90;;;;;;5011244;28;20041;-33
2022/11/18 03:31:42;;;;;;;0.80;0.80;;;8.00;99.90;;;;;;5025676;28;20499;-30
2022/11/18 03:34:12;;;;;;;0.68;0.60;;;8.10;99.90;;;;;;5024336;28;20113;-29
2022/11/18 03:36:42;;;;;;;0.93;0.90;;;8.00;99.90;;;;;;5021228;28;20587;-30
2022/11/18 03:39:11;;;;;;;1.02;0.95;;;8.10;99.90;;;;;;5026607;28;20368;-29
2022/11/18 03:41:47;;;;;;;0.70;0.70;;;8.10;99.90;;;;;;5026377;28;20025;-39
2022/11/18 03:44:32;;;;;;;0.60;0.60;;;8.10;99.90;;;;;;5008234;28;20120;-36
2022/11/18 03:47:11;;;;;;;0.85;0.60;;;8.10;99.90;;;;;;5021551;28;20056;-38
2022/11/18 03:49:48;;;;;;;0.60;0.60;;;8.10;99.90;;;;;;5020698;28;21247;-41
2022/11/18 03:52:21;;;;;;;3.75;0.60;;;8.10;99.90;;;;;;5026776;28;20438;-41
2022/11/18 03:54:49;;;;;;;0.50;0.50;;;8.10;99.90;;;;;;5023311;28;20069;-37
2022/11/18 03:57:29;;;;;;;0.50;0.50;;;8.00;99.90;;;;;;5023649;28;20045;-41
2022/11/18 04:00:04;;;;;;;0.43;0.43;;;8.00;99.90;;;;;;5025894;28;20021;-41
2022/11/18 04:02:30;;;;;;;0.40;0.40;;;8.00;99.90;;;;;;5024659;28;20041;-41
2022/11/18 04:04:59;;;;;;;0.50;0.50;;;8.00;99.90;;;;;;5025119;28;20025;-34
2022/11/18 04:07:54;;;;;;;0.45;0.45;;;8.00;99.90;;;;;;5022230;28;20029;-41
2022/11/18 04:10:30;;;;;;;0.65;0.65;;;8.00;99.90;;;;;;5023748;28;20022;-41
2022/11/18 04:13:03;;;;;;;1.00;0.50;;;8.00;99.90;;;;;;5023705;28;20038;-33
2022/11/18 04:15:30;;;;;;;0.50;0.50;;;8.00;99.90;;;;;;5023912;28;20432;-35
2022/11/18 04:17:56;;;;;;;0.40;0.40;;;8.10;99.90;;;;;;5024231;28;20497;-41
2022/11/18 04:20:22;;;;;;;0.40;0.40;;;8.00;99.90;;;;;;5024566;28;20037;-41
2022/11/18 04:22:47;;;;;;;0.50;0.50;;;8.00;99.90;;;;;;5023281;28;20049;-37
2022/11/18 04:25:13;;;;;;;0.40;0.40;;;8.00;99.90;;;;;;5026379;28;20032;-42
2022/11/18 04:27:39;;;;;;;0.30;0.30;;;8.00;99.90;;;;;;5021109;28;20025;-37
2022/11/18 04:30:06;;;;;;;0.40;0.40;;;8.10;99.90;;;;;;5023680;28;20123;-38
2022/11/18 04:32:31;;;;;;;0.45;0.40;;;8.10;99.90;;;;;;5022067;28;20506;-40
2022/11/18 04:34:57;;;;;;;0.45;0.45;;;8.10;99.90;;;;;;5019939;28;20255;-39
2022/11/18 04:37:23;;;;;;;0.47;0.47;;;8.10;99.90;;;;;;5022499;28;20356;-42
2022/11/18 04:39:49;;;;;;;0.50;0.50;;;8.10;99.90;;;;;;5024955;28;20025;-37
2022/11/18 04:42:14;;;;;;;0.47;0.47;;;8.00;99.90;;;;;;5024127;28;20029;-35
2022/11/18 04:44:40;;;;;;;0.40;0.40;;;8.10;99.90;;;;;;5023094;28;20167;-41
2022/11/18 04:47:06;;;;;;;0.40;0.40;;;8.10;99.90;;;;;;5021879;28;20402;-38
2022/11/18 04:49:33;;;;;;;0.32;0.32;;;8.10;99.90;;;;;;5022030;28;20159;-40
2022/11/18 04:51:59;;;;;;;0.40;0.40;;;8.10;99.90;;;;;;5023302;28;20088;-37
2022/11/18 04:54:26;;;;;;;0.45;0.40;;;8.00;99.90;;;;;;5022744;28;20065;-42
2022/11/18 04:56:52;;;;;;;0.77;0.60;;;8.10;99.90;;;;;;5022005;28;20045;-39
2022/11/18 04:59:21;;;;;;;0.50;0.43;;;8.10;99.90;;;;;;5021302;28;20032;-40
2022/11/18 05:01:47;;;;;;;0.52;0.52;;;8.10;99.90;;;;;;5020148;28;20457;-35
2022/11/18 05:04:17;;;;;;;0.50;0.50;;;8.10;99.90;;;;;;5021917;28;20029;-39
2022/11/18 05:06:43;;;;;;;0.40;0.40;;;8.20;99.90;;;;;;5020736;28;20399;-40
2022/11/18 05:09:09;;;;;;;0.60;0.60;;;8.20;99.90;;;;;;5029337;28;20025;-41
2022/11/18 05:14:19;;;;;;;0.32;0.32;;;8.20;99.90;;;;;;5026100;28;20135;-40
2022/11/18 05:16:45;;;;;;;0.70;0.70;;;8.20;99.90;;;;;;5027589;28;20113;-42
2022/11/18 05:19:10;;;;;;;1.85;0.70;;;8.20;99.90;;;;;;5028203;28;20018;-39
2022/11/18 05:21:36;;;;;;;0.60;0.60;;;8.20;99.90;;;;;;5027751;28;20025;-41
2022/11/18 05:24:03;;;;;;;0.88;0.60;;;8.20;99.90;;;;;;5028004;28;20057;-39
2022/11/18 05:26:29;;;;;;;0.40;0.40;;;8.20;99.90;;;;;;5024886;28;20044;-40
2022/11/18 05:28:55;;;;;;;0.50;0.50;;;8.20;99.90;;;;;;5026291;28;20534;-40
2022/11/18 05:31:21;;;;;;;0.80;0.80;;;8.20;99.90;;;;;;5023131;28;20549;-36
2022/11/18 05:33:46;;;;;;;0.30;0.30;;;8.10;99.90;;;;;;5025314;28;20091;-39
2022/11/18 05:36:15;;;;;;;0.57;0.50;;;8.10;99.90;;;;;;5025697;28;20021;-41
2022/11/18 05:38:41;;;;;;;0.75;0.60;;;8.10;99.90;;;;;;5025709;28;20049;-40
2022/11/18 05:41:07;;;;;;;0.30;0.30;;;8.10;99.90;;;;;;5023172;28;20029;-42
2022/11/18 05:43:34;;;;;;;0.40;0.40;;;8.10;99.90;;;;;;5025231;28;20026;-38
2022/11/18 05:46:00;;;;;;;0.40;0.40;;;8.10;99.90;;;;;;5023608;28;20131;-41
2022/11/18 05:48:26;;;;;;;0.50;0.50;;;8.10;99.90;;;;;;5024009;28;20124;-40
2022/11/18 05:50:53;;;;;;;0.57;0.57;;;8.10;99.90;;;;;;5024990;28;20112;-35
2022/11/18 05:53:21;;;;;;;1.48;1.40;;;8.10;99.90;;;;;;5023363;28;20601;-39
2022/11/18 05:55:59;;;;;;;0.40;0.40;;;8.00;99.90;;;;;;5027351;28;20018;-40
2022/11/18 05:58:25;;;;;;;1.40;0.60;;;8.00;99.90;;;;;;5026605;28;20029;-41
2022/11/18 06:00:54;;;;;;;0.63;0.63;;;8.00;99.90;;;;;;5027326;28;20037;-35
2022/11/18 06:03:24;;;;;;;0.90;0.90;;;7.90;99.90;;;;;;5025962;28;20036;-40
2022/11/18 06:05:52;;;;;;;1.40;0.70;;;7.80;99.90;;;;;;5028403;28;20072;-41
2022/11/18 06:08:21;;;;;;;0.73;0.73;;;7.90;99.90;;;;;;5023769;28;20501;-41
2022/11/18 06:10:48;;;;;;;0.65;0.65;;;7.80;99.90;;;;;;5007334;28;20044;-41
2022/11/18 06:13:24;;;;;;;0.77;0.77;;;7.80;99.90;;;;;;5025435;28;20069;-41
2022/11/18 06:15:49;;;;;;;1.00;0.70;;;7.80;99.90;;;;;;5021636;28;20035;-39
2022/11/18 06:18:31;;;;;;;0.88;0.88;;;7.80;99.90;;;;;;5019848;28;20025;-41
2022/11/18 06:21:03;;;;;;;0.40;0.40;;;7.80;99.90;;;;;;5023301;28;20026;-40
2022/11/18 06:23:33;;;;;;;0.50;0.50;;;7.70;99.90;;;;;;5021858;28;20449;-37
2022/11/18 06:25:59;;;;;;;0.60;0.60;;;7.70;99.90;;;;;;5026992;28;20129;-41
2022/11/18 06:28:26;;;;;;;0.90;0.63;;;7.70;99.90;;;;;;5023823;28;20045;-40
2022/11/18 06:30:51;;;;;;;0.68;0.68;;;7.60;99.90;;;;;;5020551;28;20041;-39
2022/11/18 06:33:17;;;;;;;0.90;0.90;;;7.70;99.90;;;;;;5024152;28;20543;-41
2022/11/18 06:35:43;;;;;;;0.68;0.65;;;7.60;99.90;;;;;;5022243;28;20056;-41
2022/11/18 06:38:08;;;;;;;0.60;0.60;;;7.60;99.90;;;;;;5024476;28;20159;-41
2022/11/18 06:40:35;;;;;;;0.70;0.70;;;7.60;99.90;;;;;;5023925;28;20033;-38
2022/11/18 06:48:40;;;;;;;0.98;0.65;;;7.50;99.90;;;;;;5010945;28;20048;-39
2022/11/18 06:51:07;;;;;;;1.48;0.70;;;7.50;99.90;;;;;;5009404;28;20041;-35
2022/11/18 06:53:33;;;;;;;0.60;0.60;;;7.40;99.90;;;;;;5016137;28;20037;-35
2022/11/18 06:56:04;;;;;;;0.70;0.70;;;7.40;99.90;;;;;;5006959;28;20115;-40
2022/11/18 06:58:29;;;;;;;0.55;0.55;;;7.40;99.90;;;;;;5005926;28;20622;-38
2022/11/18 07:00:55;;;;;;;0.65;0.65;;;7.40;99.90;;;;;;5004743;28;20033;-34
2022/11/18 07:03:20;;;;;;;0.50;0.50;;;7.30;99.90;;;;;;5006875;28;20025;-39
2022/11/18 07:05:46;;;;;;;0.57;0.57;;;7.30;99.90;;;;;;5007141;28;20407;-35
2022/11/18 07:08:11;;;;;;;0.80;0.60;;;7.30;99.90;;;;;;5007015;28;20265;-39
2022/11/18 07:10:37;;;;;;;0.73;0.73;;;7.20;99.90;;;;;;5012093;28;20076;-34
2022/11/18 07:13:03;;;;;;;0.50;0.50;;;7.20;99.90;;;;;;5024610;28;20083;-35
2022/11/18 07:15:28;;;;;;;0.40;0.40;;;7.20;99.90;;;;;;5023307;28;20716;-41
2022/11/18 07:17:54;;;;;;;0.40;0.40;;;7.20;99.90;;;;;;5021599;28;20026;-41
2022/11/18 07:20:19;;;;;;;0.50;0.50;;;7.10;99.90;;;;;;5026883;28;20040;-35
2022/11/18 07:22:45;;;;;;;0.30;0.30;;;7.10;99.90;;;;;;5026717;28;20081;-41
2022/11/18 07:25:11;;;;;;;0.60;0.50;;;7.00;99.90;;;;;;5025521;28;20377;-37
2022/11/18 07:27:36;;;;;;;0.57;0.57;;;7.00;99.90;;;;;;5022527;28;20156;-35
2022/11/18 07:30:02;;;;;;;0.60;0.60;;;7.00;99.90;;;;;;5003437;28;20119;-38
2022/11/18 07:32:28;;;;;;;0.50;0.50;;;7.00;99.90;;;;;;5021939;28;20032;-41
2022/11/18 07:34:53;;;;;;;0.75;0.55;;;7.00;99.90;;;;;;5028309;28;20576;-33
2022/11/18 07:37:19;;;;;;;0.57;0.57;;;7.00;99.90;;;;;;5025072;28;20029;-37
2022/11/18 07:39:45;;;;;;;0.50;0.43;;;7.00;99.90;;;;;;5026662;28;20544;-40
2022/11/18 07:42:11;;;;;;;0.50;0.50;;;7.00;99.90;;;;;;5025311;28;20033;-42
2022/11/18 07:44:36;;;;;;;0.40;0.40;;;6.90;99.90;;;;;;5023541;28;20045;-37
2022/11/18 07:47:02;;;;;;;0.85;0.85;;;6.90;99.90;;;;;;5023899;28;20542;-35
2022/11/18 07:49:28;;;;;;;0.60;0.60;;;6.90;99.90;;;;;;5026169;28;20033;-38
2022/11/18 07:51:53;;;;;;;0.40;0.40;;;6.90;99.90;;;;;;5024285;28;20026;-41
2022/11/18 07:54:19;;;;;;;0.50;0.50;;;6.90;99.90;;;;;;5023198;28;20029;-37
2022/11/18 07:56:44;;;;;;;0.55;0.55;;;6.90;99.90;;;;;;5024239;28;20034;-38
2022/11/18 07:59:10;;;;;;;0.47;0.45;;;6.90;99.90;;;;;;5023168;28;20047;-41
2022/11/18 08:01:35;;;;;;;0.63;0.40;;;6.90;99.90;;;;;;5023581;28;20034;-40
2022/11/18 08:04:10;;;;;;;0.47;0.47;;;6.90;99.90;;;;;;5025383;28;20493;-41
2022/11/18 08:06:36;;;;;;;0.60;0.60;;;6.90;99.90;;;;;;5004503;28;20033;-40
2022/11/18 08:09:03;;;;;;;0.50;0.50;;;6.90;99.90;;;;;;5023995;28;20116;-38
2022/11/18 08:11:29;;;;;;;0.40;0.40;;;6.90;99.90;;;;;;5022767;28;20044;-38
2022/11/18 08:13:54;;;;;;;0.40;0.40;;;6.90;99.90;;;;;;5018609;28;20541;-38
2022/11/18 08:16:24;;;;;;;0.52;0.52;;;6.90;99.90;;;;;;5024844;28;20021;-37
2022/11/18 08:18:51;;;;;;;0.70;0.70;;;6.90;99.90;;;;;;5023984;28;20061;-41
2022/11/18 08:21:18;;;;;;;0.55;0.55;;;6.90;99.90;;;;;;5022449;28;20037;-40
2022/11/18 08:23:49;;;;;;;0.50;0.50;;;6.90;99.90;;;;;;5023168;28;20041;-41
2022/11/18 08:26:14;;;;;;;1.85;0.50;;;6.80;99.90;;;;;;5022968;28;20470;-39
2022/11/18 08:28:41;;;;;;;0.50;0.50;;;6.80;99.90;;;;;;5023057;28;20071;-37
2022/11/18 08:31:23;;;;;;;0.40;0.40;;;6.80;99.90;;;;;;5022846;28;20056;-41
2022/11/18 08:33:54;;;;;;;0.55;0.55;;;6.80;99.90;;;;;;5025201;28;20026;-41
2022/11/18 08:36:25;;;;;;;0.50;0.50;;;6.80;99.90;;;;;;5023658;28;20076;-41
2022/11/18 08:38:51;;;;;;;0.60;0.60;;;6.80;99.90;;;;;;5023667;28;20363;-40
2022/11/18 08:41:24;;;;;;;0.47;0.40;;;6.70;99.90;;;;;;5024115;28;20030;-39
2022/11/18 08:43:49;;;;;;;0.85;0.85;;;6.80;99.90;;;;;;5023050;28;20078;-38
2022/11/18 08:46:15;;;;;;;0.45;0.45;;;6.80;99.90;;;;;;5025304;28;20033;-41
2022/11/18 08:48:40;;;;;;;0.50;0.50;;;6.80;99.90;;;;;;5024679;28;20036;-38
2022/11/18 08:51:10;;;;;;;0.50;0.50;;;6.80;99.90;;;;;;5027608;28;20034;-42
2022/11/18 08:53:36;;;;;;;0.52;0.52;;;6.80;99.90;;;;;;5023347;28;20119;-39
2022/11/18 08:56:01;;;;;;;0.50;0.50;;;6.70;99.90;;;;;;5022993;28;20026;-39
2022/11/18 08:58:27;;;;;;;0.30;0.30;;;6.80;99.90;;;;;;5023008;28;20052;-39
2022/11/18 09:00:53;;;;;;;0.43;0.43;;;6.70;99.90;;;;;;5023470;28;20032;-40
2022/11/18 09:03:19;;;;;;;1.45;0.30;;;6.70;99.90;;;;;;5023161;28;20049;-36
2022/11/18 09:05:44;;;;;;;1.00;0.50;;;6.70;99.90;;;;;;5022956;28;20059;-40
2022/11/18 09:08:10;;;;;;;0.30;0.30;;;6.70;99.90;;;;;;5025395;28;20061;-41
2022/11/18 09:10:37;;;;;;;0.40;0.40;;;6.70;99.90;;;;;;5025059;28;20450;-42
2022/11/18 09:13:02;;;;;;;0.35;0.35;;;6.70;99.90;;;;;;5021820;28;20386;-38
2022/11/18 09:15:28;;;;;;;0.40;0.40;;;6.70;99.90;;;;;;5023574;28;20025;-41
2022/11/18 09:17:55;;;;;;;0.70;0.70;;;6.70;99.90;;;;;;5022358;28;20053;-41
2022/11/18 09:20:21;;;;;;;1.00;0.40;;;6.70;99.90;;;;;;5027105;28;20033;-39
2022/11/18 09:22:46;;;;;;;0.40;0.40;;;6.80;99.90;;;;;;5023226;28;20104;-41
2022/11/18 09:25:12;;;;;;;0.52;0.52;;;6.80;99.90;;;;;;5008438;28;20041;-40
2022/11/18 09:27:38;;;;;;;0.55;0.55;;;6.80;99.90;;;;;;5020424;28;20038;-38
2022/11/18 09:30:04;;;;;;;0.30;0.30;;;6.80;99.90;;;;;;5021211;28;20132;-41
2022/11/18 09:32:31;;;;;;;0.52;0.52;;;6.80;99.90;;;;;;5023527;28;20046;-41
2022/11/18 09:34:57;;;;;;;0.65;0.65;;;6.80;99.90;;;;;;5023125;28;20029;-40
2022/11/18 09:37:23;;;;;;;0.43;0.43;;;6.80;99.90;;;;;;5021140;28;20585;-38
2022/11/18 09:39:48;;;;;;;0.32;0.32;;;6.80;99.90;;;;;;5022573;28;20049;-34
2022/11/18 09:42:48;;;;;;;0.60;0.60;;;6.90;99.90;;;;;;5020818;28;20505;-38
2022/11/18 09:45:37;;;;;;;0.50;0.50;;;6.90;99.90;;;;;;5021622;28;20030;-41
2022/11/18 09:48:18;;;;;;;0.50;0.50;;;7.00;99.90;;;;;;5022426;28;20040;-36
2022/11/18 09:50:44;;;;;;;0.50;0.50;;;7.00;99.90;;;;;;5021339;28;20179;-39
2022/11/18 09:53:21;;;;;;;0.50;0.50;;;7.10;99.90;;;;;;5014312;28;20128;-42
2022/11/18 09:55:49;;;;;;;0.40;0.40;;;7.10;99.90;;;;;;5008101;28;20510;-41
2022/11/18 09:58:21;;;;;;;0.50;0.50;;;7.20;99.90;;;;;;5024252;28;20459;-39
2022/11/18 10:00:46;;;;;;;0.57;0.47;;;7.20;99.90;;;;;;5026628;28;20108;-40
2022/11/18 10:03:27;;;;;;;0.63;0.63;;;7.30;99.90;;;;;;5024892;28;20136;-40
2022/11/18 10:05:59;;;;;;;0.60;0.60;;;7.40;99.90;;;;;;5023294;28;20741;-40
2022/11/18 10:08:34;;;;;;;0.50;0.50;;;7.40;99.90;;;;;;5026996;28;20157;-37
2022/11/18 10:11:03;;;;;;;2.38;1.02;;;7.60;99.90;;;;;;5026241;28;20038;-41
2022/11/18 10:13:49;;;;;;;0.47;0.47;;;7.60;99.90;;;;;;5024822;28;20071;-42
2022/11/18 10:16:42;;;;;;;0.50;0.50;;;7.70;99.90;;;;;;5026002;28;20116;-39
2022/11/18 10:19:18;;;;;;;1.10;1.10;;;7.60;99.90;;;;;;5025587;28;20029;-42
2022/11/18 10:22:03;;;;;;;0.73;0.70;;;7.70;99.90;;;;;;5028338;28;20026;-40
2022/11/18 10:24:50;;;;;;;0.90;0.57;;;7.70;99.90;;;;;;5026320;28;20049;-41
2022/11/18 10:27:16;;;;;;;0.50;0.50;;;7.70;99.90;;;;;;5027240;28;20119;-41
2022/11/18 10:29:45;;;;;;;0.50;0.50;;;7.70;99.90;;;;;;5026474;28;20017;-42
2022/11/18 10:32:12;;;;;;;;;;;7.70;99.90;;;;;;5028178;28;20052;-41
2022/11/18 10:34:53;;;;;;;0.55;0.55;;;7.70;99.90;;;;;;5028316;28;20030;-42
2022/11/18 10:37:27;;;;;;;0.57;0.57;;;7.70;99.90;;;;;;5024417;28;20068;-42
2022/11/18 10:39:58;;;;;;;1.27;0.73;;;7.70;99.90;;;;;;5026232;28;20026;-41
2022/11/18 10:42:23;;;;;;;1.00;0.90;;;7.70;99.90;;;;;;5026880;28;20032;-35
2022/11/18 10:44:49;;;;;;;0.57;0.50;;;7.70;99.90;;;;;;5025003;28;20033;-42
2022/11/18 10:47:27;;;;;;;0.80;0.80;;;7.70;99.90;;;;;;5026698;28;20037;-41
2022/11/18 10:49:54;;;;;;;1.10;0.80;;;7.60;99.90;;;;;;5025046;28;20040;-41
2022/11/18 10:52:20;;;;;;;2.83;1.08;;;7.60;99.90;;;;;;5024019;28;20094;-37
2022/11/18 10:55:08;;;;;;;0.40;0.40;;;7.60;99.90;;;;;;5024567;28;20038;-41
2022/11/18 10:57:42;;;;;;;0.80;0.80;;;7.60;99.90;;;;;;5024664;28;21181;-40
2022/11/18 11:00:41;;;;;;;0.50;0.50;;;7.60;99.90;;;;;;5024214;28;20025;-42
2022/11/18 11:03:27;;;;;;;0.47;0.47;;;7.50;99.90;;;;;;5025515;28;20096;-39
2022/11/18 11:06:20;;;;;;;0.40;0.40;;;7.60;99.90;;;;;;5024739;28;20034;-39
2022/11/18 11:09:12;;;;;;;0.82;0.60;;;7.50;99.90;;;;;;5025113;28;20057;-40
2022/11/18 11:11:59;;;;;;;0.52;0.40;;;7.50;99.90;;;;;;5002909;28;20113;-40
2022/11/18 11:14:37;;;;;;;0.30;0.30;;;7.50;99.90;;;;;;5008450;28;20045;-42
2022/11/18 11:17:05;;;;;;;0.40;0.40;;;7.50;99.90;;;;;;5007581;28;20422;-41
2022/11/18 11:19:44;;;;;;;0.60;0.60;;;7.50;99.90;;;;;;5024781;28;20083;-41
2022/11/18 11:22:11;;;;;;;0.40;0.40;;;7.50;99.90;;;;;;5024232;28;20041;-38
2022/11/18 11:24:37;;;;;;;0.40;0.40;;;7.50;99.90;;;;;;5024488;28;20037;-40
2022/11/18 11:27:21;;;;;;;0.70;0.70;;;7.50;99.90;;;;;;5026128;28;20090;-39
2022/11/18 11:30:11;;;;;;;0.40;0.40;;;7.50;99.90;;;;;;5023269;28;20031;-34
2022/11/18 11:32:55;;;;;;;0.55;0.55;;;7.40;99.90;;;;;;5023825;28;20041;-35
2022/11/18 11:35:33;;;;;;;0.50;0.50;;;7.50;99.90;;;;;;5021529;28;20035;-37
2022/11/18 11:38:05;;;;;;;0.50;0.50;;;7.40;99.90;;;;;;5024135;28;20487;-41
2022/11/18 11:40:31;;;;;;;0.60;0.60;;;7.40;99.90;;;;;;5024169;28;20029;-41
2022/11/18 11:43:15;;;;;;;0.50;0.50;;;7.40;99.90;;;;;;5023298;28;20032;-40
2022/11/18 11:45:56;;;;;;;0.38;0.38;;;7.30;99.90;;;;;;5024196;28;20025;-41
2022/11/18 11:48:30;;;;;;;1.67;0.50;;;7.40;99.90;;;;;;5022054;28;20083;-41
2022/11/18 11:51:28;;;;;;;1.02;0.65;;;7.40;99.90;;;;;;5025496;28;20056;-40
2022/11/18 11:53:53;;;;;;;0.57;0.57;;;7.40;99.90;;;;;;5006880;28;20079;-39
2022/11/18 11:56:29;;;;;;;0.45;0.45;;;7.40;99.90;;;;;;5023897;28;20053;-40
2022/11/18 11:59:19;;;;;;;0.70;0.70;;;7.50;99.90;;;;;;5024979;28;20388;-38
2022/11/18 12:01:48;;;;;;;0.68;0.68;;;7.40;99.90;;;;;;5025299;28;20056;-42
2022/11/18 12:04:48;;;;;;;0.60;0.60;;;7.40;99.90;;;;;;5023471;28;21040;-38
2022/11/18 12:07:20;;;;;;;0.90;0.90;;;7.40;99.90;;;;;;5023390;28;20029;-41
2022/11/18 12:10:16;;;;;;;1.08;0.98;;;7.30;99.90;;;;;;5026110;28;20768;-41
2022/11/18 12:13:07;;;;;;;0.60;0.60;;;7.40;99.90;;;;;;5023401;28;20359;-41
2022/11/18 12:16:10;;;;;;;0.45;0.45;;;7.40;99.90;;;;;;5023561;28;20036;-40
2022/11/18 12:18:46;;;;;;;0.60;0.60;;;7.30;99.90;;;;;;5021917;28;20560;-40
2022/11/18 12:21:44;;;;;;;0.52;0.52;;;7.30;99.90;;;;;;5006296;28;20038;-42
2022/11/18 12:24:21;;;;;;;0.70;0.70;;;7.30;99.90;;;;;;5025846;28;20045;-41
2022/11/18 12:26:49;;;;;;;0.63;0.63;;;7.30;99.90;;;;;;5024319;28;20287;-40
2022/11/18 12:29:18;;;;;;;0.50;0.50;;;7.40;99.90;;;;;;5024646;28;20071;-41
2022/11/18 12:31:44;;;;;;;;;;;7.40;99.90;;;;;;5021157;28;20037;-41
2022/11/18 12:34:27;;;;;;;0.77;0.77;;;7.30;99.90;;;;;;5021912;28;20187;-34
2022/11/18 12:36:53;;;;;;;0.40;0.40;;;7.40;99.90;;;;;;5025453;28;20033;-40
2022/11/18 12:39:26;;;;;;;0.80;0.80;;;7.40;99.90;;;;;;5024260;28;20574;-40
2022/11/18 12:44:51;;;;;;;0.70;0.70;;;7.40;99.90;;;;;;5022577;28;20381;-38
2022/11/18 12:47:35;;;;;;;;;;;7.40;99.90;;;;;;5025671;28;20040;-39
2022/11/18 12:50:01;;;;;;;0.63;0.63;;;7.30;99.90;;;;;;5025100;28;19964;-39
2022/11/18 12:52:29;;;;;;;0.50;0.50;;;7.30;99.90;;;;;;5024260;28;20490;-40
2022/11/18 12:54:58;;;;;;;1.45;0.60;;;7.40;99.90;;;;;;5006096;28;20086;-41
2022/11/18 12:57:33;;;;;;;0.60;0.60;;;7.40;99.90;;;;;;5024096;28;20029;-39
2022/11/18 13:00:14;;;;;;;0.43;0.43;;;7.40;99.90;;;;;;5024445;28;20056;-41
2022/11/18 13:02:57;;;;;;;0.30;0.30;;;7.40;99.90;;;;;;5024431;28;20109;-40
2022/11/18 13:05:29;;;;;;;0.73;0.70;;;7.40;99.90;;;;;;5019395;28;22100;-40
2022/11/18 13:08:12;;;;;;;0.50;0.50;;;7.40;99.90;;;;;;5024534;28;20450;-38
2022/11/18 13:10:51;;;;;;;0.50;0.50;;;7.40;99.90;;;;;;5023020;28;20026;-41
2022/11/18 13:13:32;;;;;;;0.80;0.80;;;7.40;99.90;;;;;;5024214;28;20041;-39
2022/11/18 13:19:01;;;;;;;0.35;0.35;;;7.40;99.90;;;;;;5023882;28;20049;-38
2022/11/18 13:24:19;;;;;;;0.60;0.60;;;7.40;99.90;;;;;;5020545;28;20512;-40
2022/11/18 13:26:51;;;;;;;0.57;0.57;;;7.40;99.90;;;;;;5020323;28;20135;-40
2022/11/18 13:29:41;;;;;;;0.60;0.60;;;7.40;99.90;;;;;;5027924;28;20560;-41
2022/11/18 13:32:26;;;;;;;0.40;0.40;;;7.30;99.90;;;;;;5026096;28;20068;-40
2022/11/18 13:35:09;;;;;;;0.82;0.80;;;7.40;99.90;;;;;;5027805;28;20088;-40
2022/11/18 13:37:35;;;;;;;0.60;0.60;;;7.40;99.90;;;;;;5025158;28;20415;-37
2022/11/18 13:40:01;;;;;;;0.60;0.60;;;7.40;99.90;;;;;;5027674;28;20075;-41
2022/11/18 13:42:28;;;;;;;0.60;0.60;;;7.40;99.90;;;;;;5011974;28;20033;-36